sensor_id;sensor_type;location;lat;lon;timestamp;temperature;humidity
60965;DHT22;46834;51.100;6.886;2022-09-12T00:00:12;16.20;51.70
60965;DHT22;46834;51.100;6.886;2022-09-12T00:02:40;16.20;52.00
60965;DHT22;46834;51.100;6.886;2022-09-12T00:05:06;16.20;51.70
60965;DHT22;46834;51.100;6.886;2022-09-12T00:07:32;16.10;51.70
60965;DHT22;46834;51.100;6.886;2022-09-12T00:09:58;16.10;51.70
60965;DHT22;46834;51.100;6.886;2022-09-12T00:12:24;16.10;51.80
60965;DHT22;46834;51.100;6.886;2022-09-12T00:14:50;16.00;51.80
60965;DHT22;46834;51.100;6.886;2022-09-12T00:17:15;16.00;51.80
60965;DHT22;46834;51.100;6.886;2022-09-12T00:19:41;16.00;51.80
60965;DHT22;46834;51.100;6.886;2022-09-12T00:22:07;16.00;51.80
60965;DHT22;46834;51.100;6.886;2022-09-12T00:24:32;15.90;51.90
60965;DHT22;46834;51.100;6.886;2022-09-12T00:26:58;15.90;51.90
60965;DHT22;46834;51.100;6.886;2022-09-12T00:29:24;15.90;52.00
60965;DHT22;46834;51.100;6.886;2022-09-12T00:31:50;15.90;52.10
60965;DHT22;46834;51.100;6.886;2022-09-12T00:34:16;15.90;52.20
60965;DHT22;46834;51.100;6.886;2022-09-12T00:36:42;15.90;52.20
60965;DHT22;46834;51.100;6.886;2022-09-12T00:39:08;15.90;52.20
60965;DHT22;46834;51.100;6.886;2022-09-12T00:41:38;15.90;52.20
60965;DHT22;46834;51.100;6.886;2022-09-12T00:46:43;15.80;52.60
60965;DHT22;46834;51.100;6.886;2022-09-12T00:49:25;15.80;52.50
60965;DHT22;46834;51.100;6.886;2022-09-12T00:52:02;15.80;52.40
60965;DHT22;46834;51.100;6.886;2022-09-12T00:54:35;15.80;52.40
60965;DHT22;46834;51.100;6.886;2022-09-12T00:57:07;15.80;52.40
60965;DHT22;46834;51.100;6.886;2022-09-12T00:59:40;15.80;52.40
60965;DHT22;46834;51.100;6.886;2022-09-12T01:02:10;15.80;52.50
60965;DHT22;46834;51.100;6.886;2022-09-12T01:04:37;15.70;52.20
60965;DHT22;46834;51.100;6.886;2022-09-12T01:07:05;15.70;52.30
60965;DHT22;46834;51.100;6.886;2022-09-12T01:09:33;15.70;52.30
60965;DHT22;46834;51.100;6.886;2022-09-12T01:12:01;15.70;52.30
60965;DHT22;46834;51.100;6.886;2022-09-12T01:14:29;15.70;52.40
60965;DHT22;46834;51.100;6.886;2022-09-12T01:16:55;15.70;52.40
60965;DHT22;46834;51.100;6.886;2022-09-12T01:34:04;15.60;52.30
60965;DHT22;46834;51.100;6.886;2022-09-12T01:40:22;15.50;52.30
60965;DHT22;46834;51.100;6.886;2022-09-12T01:45:41;15.50;52.10
60965;DHT22;46834;51.100;6.886;2022-09-12T01:48:32;15.40;52.00
60965;DHT22;46834;51.100;6.886;2022-09-12T01:51:13;15.40;52.20
60965;DHT22;46834;51.100;6.886;2022-09-12T01:54:08;15.30;52.40
60965;DHT22;46834;51.100;6.886;2022-09-12T01:56:39;15.30;52.50
60965;DHT22;46834;51.100;6.886;2022-09-12T01:59:20;15.30;52.20
60965;DHT22;46834;51.100;6.886;2022-09-12T02:01:58;15.30;52.50
60965;DHT22;46834;51.100;6.886;2022-09-12T02:04:47;15.30;52.30
60965;DHT22;46834;51.100;6.886;2022-09-12T02:07:20;15.30;52.40
60965;DHT22;46834;51.100;6.886;2022-09-12T02:12:49;15.20;52.60
60965;DHT22;46834;51.100;6.886;2022-09-12T02:15:23;15.10;52.30
60965;DHT22;46834;51.100;6.886;2022-09-12T02:17:58;15.10;52.40
60965;DHT22;46834;51.100;6.886;2022-09-12T02:20:32;15.10;52.40
60965;DHT22;46834;51.100;6.886;2022-09-12T02:23:02;15.10;52.50
60965;DHT22;46834;51.100;6.886;2022-09-12T02:25:34;15.10;52.60
60965;DHT22;46834;51.100;6.886;2022-09-12T02:28:09;15.10;52.60
60965;DHT22;46834;51.100;6.886;2022-09-12T02:30:47;15.00;52.70
60965;DHT22;46834;51.100;6.886;2022-09-12T02:33:55;15.00;52.70
60965;DHT22;46834;51.100;6.886;2022-09-12T02:39:15;15.00;52.60
60965;DHT22;46834;51.100;6.886;2022-09-12T02:41:46;15.00;52.50
60965;DHT22;46834;51.100;6.886;2022-09-12T02:44:16;15.00;52.60
60965;DHT22;46834;51.100;6.886;2022-09-12T02:46:45;15.00;52.60
60965;DHT22;46834;51.100;6.886;2022-09-12T02:49:15;15.00;52.70
60965;DHT22;46834;51.100;6.886;2022-09-12T02:51:41;15.00;52.60
60965;DHT22;46834;51.100;6.886;2022-09-12T02:54:08;14.90;52.60
60965;DHT22;46834;51.100;6.886;2022-09-12T02:56:34;15.00;52.70
60965;DHT22;46834;51.100;6.886;2022-09-12T02:59:06;14.90;52.60
60965;DHT22;46834;51.100;6.886;2022-09-12T03:01:57;15.00;52.90
60965;DHT22;46834;51.100;6.886;2022-09-12T03:10:39;14.90;52.80
60965;DHT22;46834;51.100;6.886;2022-09-12T03:13:16;14.90;53.00
60965;DHT22;46834;51.100;6.886;2022-09-12T03:22:51;14.80;53.00
60965;DHT22;46834;51.100;6.886;2022-09-12T03:25:52;14.80;53.10
60965;DHT22;46834;51.100;6.886;2022-09-12T03:28:23;14.80;53.10
60965;DHT22;46834;51.100;6.886;2022-09-12T03:30:50;14.80;52.70
60965;DHT22;46834;51.100;6.886;2022-09-12T03:33:23;14.80;52.80
60965;DHT22;46834;51.100;6.886;2022-09-12T03:35:50;14.80;53.00
60965;DHT22;46834;51.100;6.886;2022-09-12T03:38:17;14.80;52.90
60965;DHT22;46834;51.100;6.886;2022-09-12T03:40:43;14.70;52.90
60965;DHT22;46834;51.100;6.886;2022-09-12T03:43:10;14.70;52.90
60965;DHT22;46834;51.100;6.886;2022-09-12T03:45:37;14.70;52.90
60965;DHT22;46834;51.100;6.886;2022-09-12T03:48:04;14.70;52.90
60965;DHT22;46834;51.100;6.886;2022-09-12T03:50:30;14.70;53.00
60965;DHT22;46834;51.100;6.886;2022-09-12T03:53:00;14.70;53.00
60965;DHT22;46834;51.100;6.886;2022-09-12T03:55:26;14.70;53.10
60965;DHT22;46834;51.100;6.886;2022-09-12T03:57:53;14.70;53.00
60965;DHT22;46834;51.100;6.886;2022-09-12T04:00:19;14.70;53.10
60965;DHT22;46834;51.100;6.886;2022-09-12T04:02:45;14.60;53.10
60965;DHT22;46834;51.100;6.886;2022-09-12T04:05:11;14.60;53.10
60965;DHT22;46834;51.100;6.886;2022-09-12T04:07:37;14.60;53.10
60965;DHT22;46834;51.100;6.886;2022-09-12T04:10:03;14.60;53.10
60965;DHT22;46834;51.100;6.886;2022-09-12T04:12:29;14.60;53.10
60965;DHT22;46834;51.100;6.886;2022-09-12T04:14:55;14.60;53.10
60965;DHT22;46834;51.100;6.886;2022-09-12T04:17:20;14.60;53.10
60965;DHT22;46834;51.100;6.886;2022-09-12T04:19:46;14.60;53.10
60965;DHT22;46834;51.100;6.886;2022-09-12T04:22:12;14.60;53.10
60965;DHT22;46834;51.100;6.886;2022-09-12T04:24:37;14.60;53.20
60965;DHT22;46834;51.100;6.886;2022-09-12T04:27:03;14.50;53.10
60965;DHT22;46834;51.100;6.886;2022-09-12T04:29:29;14.50;53.10
60965;DHT22;46834;51.100;6.886;2022-09-12T04:31:55;14.50;53.20
60965;DHT22;46834;51.100;6.886;2022-09-12T04:34:21;14.50;53.20
60965;DHT22;46834;51.100;6.886;2022-09-12T04:36:47;14.50;53.20
60965;DHT22;46834;51.100;6.886;2022-09-12T04:39:13;14.50;53.30
60965;DHT22;46834;51.100;6.886;2022-09-12T04:41:39;14.50;53.30
60965;DHT22;46834;51.100;6.886;2022-09-12T04:44:09;14.50;53.30
60965;DHT22;46834;51.100;6.886;2022-09-12T04:46:40;14.50;53.40
60965;DHT22;46834;51.100;6.886;2022-09-12T04:49:09;14.50;53.30
60965;DHT22;46834;51.100;6.886;2022-09-12T04:51:36;14.50;53.30
60965;DHT22;46834;51.100;6.886;2022-09-12T04:54:10;14.50;53.40
60965;DHT22;46834;51.100;6.886;2022-09-12T04:56:39;14.50;53.60
60965;DHT22;46834;51.100;6.886;2022-09-12T04:59:07;14.50;53.40
60965;DHT22;46834;51.100;6.886;2022-09-12T05:01:34;14.50;53.50
60965;DHT22;46834;51.100;6.886;2022-09-12T05:04:00;14.50;53.50
60965;DHT22;46834;51.100;6.886;2022-09-12T05:06:29;14.50;53.50
60965;DHT22;46834;51.100;6.886;2022-09-12T05:08:58;14.50;53.60
60965;DHT22;46834;51.100;6.886;2022-09-12T05:11:29;14.50;53.60
60965;DHT22;46834;51.100;6.886;2022-09-12T05:13:56;14.50;53.70
60965;DHT22;46834;51.100;6.886;2022-09-12T05:16:23;14.50;53.60
60965;DHT22;46834;51.100;6.886;2022-09-12T05:18:50;14.50;53.60
60965;DHT22;46834;51.100;6.886;2022-09-12T05:21:18;14.50;53.60
60965;DHT22;46834;51.100;6.886;2022-09-12T05:23:46;14.50;53.70
60965;DHT22;46834;51.100;6.886;2022-09-12T05:26:15;14.60;53.80
60965;DHT22;46834;51.100;6.886;2022-09-12T05:28:42;14.60;53.80
60965;DHT22;46834;51.100;6.886;2022-09-12T05:31:18;14.60;53.80
60965;DHT22;46834;51.100;6.886;2022-09-12T05:33:47;14.60;53.90
60965;DHT22;46834;51.100;6.886;2022-09-12T05:36:16;14.70;53.90
60965;DHT22;46834;51.100;6.886;2022-09-12T05:38:44;14.70;54.00
60965;DHT22;46834;51.100;6.886;2022-09-12T05:41:18;14.70;53.90
60965;DHT22;46834;51.100;6.886;2022-09-12T05:43:46;14.80;54.10
60965;DHT22;46834;51.100;6.886;2022-09-12T05:46:21;14.80;53.90
60965;DHT22;46834;51.100;6.886;2022-09-12T05:48:50;14.90;54.00
60965;DHT22;46834;51.100;6.886;2022-09-12T05:51:19;14.90;54.00
60965;DHT22;46834;51.100;6.886;2022-09-12T05:53:53;15.00;54.10
60965;DHT22;46834;51.100;6.886;2022-09-12T05:56:23;15.00;54.10
60965;DHT22;46834;51.100;6.886;2022-09-12T05:58:59;15.00;54.10
60965;DHT22;46834;51.100;6.886;2022-09-12T06:01:27;15.10;54.10
60965;DHT22;46834;51.100;6.886;2022-09-12T06:03:56;15.10;54.00
60965;DHT22;46834;51.100;6.886;2022-09-12T06:06:25;15.20;54.10
60965;DHT22;46834;51.100;6.886;2022-09-12T06:08:56;15.20;54.10
60965;DHT22;46834;51.100;6.886;2022-09-12T06:11:25;15.30;54.10
60965;DHT22;46834;51.100;6.886;2022-09-12T06:13:52;15.30;54.00
60965;DHT22;46834;51.100;6.886;2022-09-12T06:16:22;15.40;54.10
60965;DHT22;46834;51.100;6.886;2022-09-12T06:18:56;15.40;54.00
60965;DHT22;46834;51.100;6.886;2022-09-12T06:21:24;15.50;54.10
60965;DHT22;46834;51.100;6.886;2022-09-12T06:23:52;15.50;54.00
60965;DHT22;46834;51.100;6.886;2022-09-12T06:26:19;15.60;54.10
60965;DHT22;46834;51.100;6.886;2022-09-12T06:28:48;15.60;54.00
60965;DHT22;46834;51.100;6.886;2022-09-12T06:31:20;15.60;54.00
60965;DHT22;46834;51.100;6.886;2022-09-12T06:33:52;15.70;54.10
60965;DHT22;46834;51.100;6.886;2022-09-12T06:36:21;15.70;54.60
60965;DHT22;46834;51.100;6.886;2022-09-12T06:39:06;15.80;54.20
60965;DHT22;46834;51.100;6.886;2022-09-12T06:41:36;15.80;54.20
60965;DHT22;46834;51.100;6.886;2022-09-12T06:44:02;15.90;54.10
60965;DHT22;46834;51.100;6.886;2022-09-12T06:46:29;15.90;54.20
60965;DHT22;46834;51.100;6.886;2022-09-12T06:48:59;16.00;54.30
60965;DHT22;46834;51.100;6.886;2022-09-12T06:51:26;16.10;54.30
60965;DHT22;46834;51.100;6.886;2022-09-12T06:53:56;16.20;54.40
60965;DHT22;46834;51.100;6.886;2022-09-12T06:56:25;16.20;54.40
60965;DHT22;46834;51.100;6.886;2022-09-12T06:58:52;16.30;54.50
60965;DHT22;46834;51.100;6.886;2022-09-12T07:01:24;16.40;54.50
60965;DHT22;46834;51.100;6.886;2022-09-12T07:03:54;16.50;54.60
60965;DHT22;46834;51.100;6.886;2022-09-12T07:06:24;16.60;54.50
60965;DHT22;46834;51.100;6.886;2022-09-12T07:09:00;16.70;54.50
60965;DHT22;46834;51.100;6.886;2022-09-12T07:11:30;16.80;54.50
60965;DHT22;46834;51.100;6.886;2022-09-12T07:14:02;16.90;54.50
60965;DHT22;46834;51.100;6.886;2022-09-12T07:16:30;17.00;54.40
60965;DHT22;46834;51.100;6.886;2022-09-12T07:19:00;17.10;54.30
60965;DHT22;46834;51.100;6.886;2022-09-12T07:21:28;17.20;54.20
60965;DHT22;46834;51.100;6.886;2022-09-12T07:23:54;17.20;54.10
60965;DHT22;46834;51.100;6.886;2022-09-12T07:26:22;17.30;54.10
60965;DHT22;46834;51.100;6.886;2022-09-12T07:28:51;17.40;54.10
60965;DHT22;46834;51.100;6.886;2022-09-12T07:31:20;17.30;54.00
60965;DHT22;46834;51.100;6.886;2022-09-12T07:33:47;17.40;54.20
60965;DHT22;46834;51.100;6.886;2022-09-12T07:36:16;17.20;54.10
60965;DHT22;46834;51.100;6.886;2022-09-12T07:38:44;17.30;54.30
60965;DHT22;46834;51.100;6.886;2022-09-12T07:43:53;17.60;54.20
60965;DHT22;46834;51.100;6.886;2022-09-12T07:46:22;17.70;54.00
60965;DHT22;46834;51.100;6.886;2022-09-12T07:48:53;17.80;54.00
60965;DHT22;46834;51.100;6.886;2022-09-12T07:51:24;17.70;53.80
60965;DHT22;46834;51.100;6.886;2022-09-12T07:53:50;17.80;54.00
60965;DHT22;46834;51.100;6.886;2022-09-12T07:56:17;17.80;53.80
60965;DHT22;46834;51.100;6.886;2022-09-12T07:58:44;17.80;54.10
60965;DHT22;46834;51.100;6.886;2022-09-12T08:01:15;18.00;54.20
60965;DHT22;46834;51.100;6.886;2022-09-12T08:03:48;18.00;53.70
60965;DHT22;46834;51.100;6.886;2022-09-12T08:06:19;18.10;53.80
60965;DHT22;46834;51.100;6.886;2022-09-12T08:08:48;18.20;53.60
60965;DHT22;46834;51.100;6.886;2022-09-12T08:11:18;18.30;53.50
60965;DHT22;46834;51.100;6.886;2022-09-12T08:13:45;18.40;53.30
60965;DHT22;46834;51.100;6.886;2022-09-12T08:16:16;18.40;53.20
60965;DHT22;46834;51.100;6.886;2022-09-12T08:18:43;18.50;53.10
60965;DHT22;46834;51.100;6.886;2022-09-12T08:21:22;18.50;53.00
60965;DHT22;46834;51.100;6.886;2022-09-12T08:24:00;18.50;52.90
60965;DHT22;46834;51.100;6.886;2022-09-12T08:26:29;18.60;52.90
60965;DHT22;46834;51.100;6.886;2022-09-12T08:28:55;18.40;52.60
60965;DHT22;46834;51.100;6.886;2022-09-12T08:31:23;18.40;53.00
60965;DHT22;46834;51.100;6.886;2022-09-12T08:33:50;18.40;53.10
60965;DHT22;46834;51.100;6.886;2022-09-12T08:36:21;18.50;52.90
60965;DHT22;46834;51.100;6.886;2022-09-12T08:38:52;18.30;52.50
60965;DHT22;46834;51.100;6.886;2022-09-12T08:41:35;18.40;52.90
60965;DHT22;46834;51.100;6.886;2022-09-12T08:44:52;18.50;52.80
60965;DHT22;46834;51.100;6.886;2022-09-12T08:47:35;18.70;52.80
60965;DHT22;46834;51.100;6.886;2022-09-12T08:52:58;18.90;52.60
60965;DHT22;46834;51.100;6.886;2022-09-12T08:55:32;18.80;52.50
60965;DHT22;46834;51.100;6.886;2022-09-12T08:58:20;18.90;52.60
60965;DHT22;46834;51.100;6.886;2022-09-12T09:01:17;18.80;52.30
60965;DHT22;46834;51.100;6.886;2022-09-12T09:04:26;18.90;52.70
60965;DHT22;46834;51.100;6.886;2022-09-12T09:07:32;19.00;52.60
60965;DHT22;46834;51.100;6.886;2022-09-12T09:16:14;19.20;52.50
60965;DHT22;46834;51.100;6.886;2022-09-12T09:18:48;19.20;52.20
60965;DHT22;46834;51.100;6.886;2022-09-12T09:21:40;19.10;52.20
60965;DHT22;46834;51.100;6.886;2022-09-12T09:24:17;19.20;52.30
60965;DHT22;46834;51.100;6.886;2022-09-12T09:27:22;19.30;52.30
60965;DHT22;46834;51.100;6.886;2022-09-12T09:29:55;19.40;52.60
60965;DHT22;46834;51.100;6.886;2022-09-12T09:32:29;19.60;52.70
60965;DHT22;46834;51.100;6.886;2022-09-12T09:35:14;19.80;52.50
60965;DHT22;46834;51.100;6.886;2022-09-12T09:37:58;19.90;52.40
60965;DHT22;46834;51.100;6.886;2022-09-12T09:40:44;20.00;52.00
60965;DHT22;46834;51.100;6.886;2022-09-12T09:43:22;20.10;52.00
60965;DHT22;46834;51.100;6.886;2022-09-12T09:45:53;20.20;52.10
60965;DHT22;46834;51.100;6.886;2022-09-12T09:51:02;20.30;51.70
60965;DHT22;46834;51.100;6.886;2022-09-12T09:56:58;20.40;51.60
60965;DHT22;46834;51.100;6.886;2022-09-12T09:59:32;20.50;52.00
60965;DHT22;46834;51.100;6.886;2022-09-12T10:04:51;20.60;51.70
60965;DHT22;46834;51.100;6.886;2022-09-12T10:07:20;20.70;51.50
60965;DHT22;46834;51.100;6.886;2022-09-12T10:12:31;20.70;51.00
60965;DHT22;46834;51.100;6.886;2022-09-12T10:15:00;20.80;51.60
60965;DHT22;46834;51.100;6.886;2022-09-12T10:17:28;20.80;51.40
60965;DHT22;46834;51.100;6.886;2022-09-12T10:19:56;20.90;51.50
60965;DHT22;46834;51.100;6.886;2022-09-12T10:22:25;20.90;51.30
60965;DHT22;46834;51.100;6.886;2022-09-12T10:24:57;21.00;51.30
60965;DHT22;46834;51.100;6.886;2022-09-12T10:27:29;21.10;51.00
60965;DHT22;46834;51.100;6.886;2022-09-12T10:30:06;21.10;50.70
60965;DHT22;46834;51.100;6.886;2022-09-12T10:32:45;21.20;50.60
60965;DHT22;46834;51.100;6.886;2022-09-12T10:35:20;21.30;50.70
60965;DHT22;46834;51.100;6.886;2022-09-12T10:38:00;21.30;50.40
60965;DHT22;46834;51.100;6.886;2022-09-12T10:40:33;21.40;50.30
60965;DHT22;46834;51.100;6.886;2022-09-12T10:43:40;21.40;50.50
60965;DHT22;46834;51.100;6.886;2022-09-12T10:46:19;21.50;49.70
60965;DHT22;46834;51.100;6.886;2022-09-12T10:48:48;21.60;50.00
60965;DHT22;46834;51.100;6.886;2022-09-12T10:54:01;21.70;49.70
60965;DHT22;46834;51.100;6.886;2022-09-12T10:56:30;21.70;49.50
60965;DHT22;46834;51.100;6.886;2022-09-12T11:02:26;21.80;49.30
60965;DHT22;46834;51.100;6.886;2022-09-12T11:05:13;21.60;47.80
60965;DHT22;46834;51.100;6.886;2022-09-12T11:08:01;21.70;48.90
60965;DHT22;46834;51.100;6.886;2022-09-12T11:13:56;21.90;48.60
60965;DHT22;46834;51.100;6.886;2022-09-12T11:16:47;22.10;49.10
60965;DHT22;46834;51.100;6.886;2022-09-12T11:19:47;22.20;48.50
60965;DHT22;46834;51.100;6.886;2022-09-12T11:34:16;22.30;47.50
60965;DHT22;46834;51.100;6.886;2022-09-12T11:49:12;22.70;47.00
60965;DHT22;46834;51.100;6.886;2022-09-12T11:57:27;22.80;46.50
60965;DHT22;46834;51.100;6.886;2022-09-12T12:00:35;22.80;46.30
60965;DHT22;46834;51.100;6.886;2022-09-12T12:08:47;23.00;46.00
60965;DHT22;46834;51.100;6.886;2022-09-12T12:11:46;23.00;46.00
60965;DHT22;46834;51.100;6.886;2022-09-12T12:14:18;23.00;45.10
60965;DHT22;46834;51.100;6.886;2022-09-12T12:16:47;23.00;45.30
60965;DHT22;46834;51.100;6.886;2022-09-12T12:21:45;23.10;45.20
60965;DHT22;46834;51.100;6.886;2022-09-12T12:29:12;23.30;44.70
60965;DHT22;46834;51.100;6.886;2022-09-12T12:34:32;23.40;44.50
60965;DHT22;46834;51.100;6.886;2022-09-12T12:45:47;23.60;43.10
60965;DHT22;46834;51.100;6.886;2022-09-12T12:47:50;23.60;43.10
60965;DHT22;46834;51.100;6.886;2022-09-12T12:52:52;23.60;43.30
60965;DHT22;46834;51.100;6.886;2022-09-12T12:55:37;23.70;42.60
60965;DHT22;46834;51.100;6.886;2022-09-12T12:58:33;23.70;42.70
60965;DHT22;46834;51.100;6.886;2022-09-12T13:01:10;23.80;42.60
60965;DHT22;46834;51.100;6.886;2022-09-12T13:03:54;23.80;42.60
60965;DHT22;46834;51.100;6.886;2022-09-12T13:06:34;23.80;42.40
60965;DHT22;46834;51.100;6.886;2022-09-12T13:09:23;23.80;42.60
60965;DHT22;46834;51.100;6.886;2022-09-12T13:12:04;23.90;41.80
60965;DHT22;46834;51.100;6.886;2022-09-12T13:22:48;24.00;41.50
60965;DHT22;46834;51.100;6.886;2022-09-12T13:25:33;24.00;42.10
60965;DHT22;46834;51.100;6.886;2022-09-12T13:30:37;24.10;41.90
60965;DHT22;46834;51.100;6.886;2022-09-12T13:33:30;24.10;41.70
60965;DHT22;46834;51.100;6.886;2022-09-12T13:36:09;24.10;41.10
60965;DHT22;46834;51.100;6.886;2022-09-12T13:39:14;24.10;40.60
60965;DHT22;46834;51.100;6.886;2022-09-12T13:51:12;24.30;40.40
60965;DHT22;46834;51.100;6.886;2022-09-12T13:53:30;24.20;41.00
60965;DHT22;46834;51.100;6.886;2022-09-12T13:56:04;24.30;41.10
60965;DHT22;46834;51.100;6.886;2022-09-12T13:58:31;24.30;41.30
60965;DHT22;46834;51.100;6.886;2022-09-12T14:01:01;24.30;41.50
60965;DHT22;46834;51.100;6.886;2022-09-12T14:03:38;24.40;41.00
60965;DHT22;46834;51.100;6.886;2022-09-12T14:09:25;24.50;40.60
60965;DHT22;46834;51.100;6.886;2022-09-12T14:11:54;24.50;40.50
60965;DHT22;46834;51.100;6.886;2022-09-12T14:14:35;24.60;41.00
60965;DHT22;46834;51.100;6.886;2022-09-12T14:17:17;24.50;40.90
60965;DHT22;46834;51.100;6.886;2022-09-12T14:19:48;24.60;40.60
60965;DHT22;46834;51.100;6.886;2022-09-12T14:22:15;24.60;41.00
60965;DHT22;46834;51.100;6.886;2022-09-12T14:24:46;24.70;41.50
60965;DHT22;46834;51.100;6.886;2022-09-12T14:27:21;24.70;40.50
60965;DHT22;46834;51.100;6.886;2022-09-12T14:29:59;24.80;40.50
60965;DHT22;46834;51.100;6.886;2022-09-12T14:32:28;24.80;40.30
60965;DHT22;46834;51.100;6.886;2022-09-12T14:35:05;24.80;40.60
60965;DHT22;46834;51.100;6.886;2022-09-12T14:37:48;24.80;40.20
60965;DHT22;46834;51.100;6.886;2022-09-12T14:40:18;24.80;40.30
60965;DHT22;46834;51.100;6.886;2022-09-12T14:42:47;24.80;40.30
60965;DHT22;46834;51.100;6.886;2022-09-12T14:45:16;24.80;40.20
60965;DHT22;46834;51.100;6.886;2022-09-12T14:47:55;24.80;40.30
60965;DHT22;46834;51.100;6.886;2022-09-12T14:50:25;24.80;40.30
60965;DHT22;46834;51.100;6.886;2022-09-12T14:53:32;24.80;40.00
60965;DHT22;46834;51.100;6.886;2022-09-12T14:56:09;24.90;40.20
60965;DHT22;46834;51.100;6.886;2022-09-12T14:58:38;24.90;39.60
60965;DHT22;46834;51.100;6.886;2022-09-12T15:03:34;24.80;39.90
60965;DHT22;46834;51.100;6.886;2022-09-12T15:06:03;24.90;39.90
60965;DHT22;46834;51.100;6.886;2022-09-12T15:08:32;24.80;39.80
60965;DHT22;46834;51.100;6.886;2022-09-12T15:10:59;24.80;39.80
60965;DHT22;46834;51.100;6.886;2022-09-12T15:13:26;24.90;39.90
60965;DHT22;46834;51.100;6.886;2022-09-12T15:15:59;24.80;39.80
60965;DHT22;46834;51.100;6.886;2022-09-12T15:18:27;24.80;39.40
60965;DHT22;46834;51.100;6.886;2022-09-12T15:21:00;24.90;39.60
60965;DHT22;46834;51.100;6.886;2022-09-12T15:23:40;24.90;39.40
60965;DHT22;46834;51.100;6.886;2022-09-12T15:26:17;24.80;39.30
60965;DHT22;46834;51.100;6.886;2022-09-12T15:28:44;24.80;39.50
60965;DHT22;46834;51.100;6.886;2022-09-12T15:31:31;24.70;39.60
60965;DHT22;46834;51.100;6.886;2022-09-12T15:33:58;24.70;39.40
60965;DHT22;46834;51.100;6.886;2022-09-12T15:36:26;24.80;39.60
60965;DHT22;46834;51.100;6.886;2022-09-12T15:38:53;24.70;39.50
60965;DHT22;46834;51.100;6.886;2022-09-12T15:44:04;24.70;39.20
60965;DHT22;46834;51.100;6.886;2022-09-12T15:46:32;24.60;39.40
60965;DHT22;46834;51.100;6.886;2022-09-12T15:48:58;24.60;39.40
60965;DHT22;46834;51.100;6.886;2022-09-12T15:51:23;24.60;39.40
60965;DHT22;46834;51.100;6.886;2022-09-12T15:53:50;24.60;39.40
60965;DHT22;46834;51.100;6.886;2022-09-12T15:56:17;24.50;39.30
60965;DHT22;46834;51.100;6.886;2022-09-12T15:58:45;24.50;39.20
60965;DHT22;46834;51.100;6.886;2022-09-12T16:01:13;24.50;39.30
60965;DHT22;46834;51.100;6.886;2022-09-12T16:03:39;24.50;39.20
60965;DHT22;46834;51.100;6.886;2022-09-12T16:06:06;24.50;39.20
60965;DHT22;46834;51.100;6.886;2022-09-12T16:08:33;24.50;39.20
60965;DHT22;46834;51.100;6.886;2022-09-12T16:11:09;24.40;39.20
60965;DHT22;46834;51.100;6.886;2022-09-12T16:13:40;24.40;38.90
60965;DHT22;46834;51.100;6.886;2022-09-12T16:16:06;24.40;39.20
60965;DHT22;46834;51.100;6.886;2022-09-12T16:18:33;24.40;39.30
60965;DHT22;46834;51.100;6.886;2022-09-12T16:20:59;24.30;39.20
60965;DHT22;46834;51.100;6.886;2022-09-12T16:23:25;24.30;39.20
60965;DHT22;46834;51.100;6.886;2022-09-12T16:25:58;24.30;39.20
60965;DHT22;46834;51.100;6.886;2022-09-12T16:28:26;24.30;39.10
60965;DHT22;46834;51.100;6.886;2022-09-12T16:30:57;24.20;39.20
60965;DHT22;46834;51.100;6.886;2022-09-12T16:33:30;24.20;39.20
60965;DHT22;46834;51.100;6.886;2022-09-12T16:36:11;24.20;39.30
60965;DHT22;46834;51.100;6.886;2022-09-12T16:38:50;24.20;39.20
60965;DHT22;46834;51.100;6.886;2022-09-12T16:41:21;24.20;39.20
60965;DHT22;46834;51.100;6.886;2022-09-12T16:43:49;24.20;39.30
60965;DHT22;46834;51.100;6.886;2022-09-12T16:46:18;24.20;39.30
60965;DHT22;46834;51.100;6.886;2022-09-12T16:48:50;24.20;39.20
60965;DHT22;46834;51.100;6.886;2022-09-12T16:51:20;24.20;39.20
60965;DHT22;46834;51.100;6.886;2022-09-12T16:53:53;24.20;39.20
60965;DHT22;46834;51.100;6.886;2022-09-12T16:56:20;24.20;39.20
60965;DHT22;46834;51.100;6.886;2022-09-12T16:58:46;24.20;39.20
60965;DHT22;46834;51.100;6.886;2022-09-12T17:01:23;24.20;39.30
60965;DHT22;46834;51.100;6.886;2022-09-12T17:03:54;24.20;39.10
60965;DHT22;46834;51.100;6.886;2022-09-12T17:06:22;24.20;39.20
60965;DHT22;46834;51.100;6.886;2022-09-12T17:08:51;24.10;39.30
60965;DHT22;46834;51.100;6.886;2022-09-12T17:11:24;24.10;39.20
60965;DHT22;46834;51.100;6.886;2022-09-12T17:13:58;24.10;39.20
60965;DHT22;46834;51.100;6.886;2022-09-12T17:16:26;24.00;39.20
60965;DHT22;46834;51.100;6.886;2022-09-12T17:18:53;24.00;39.10
60965;DHT22;46834;51.100;6.886;2022-09-12T17:21:19;24.00;39.20
60965;DHT22;46834;51.100;6.886;2022-09-12T17:23:46;24.00;39.20
60965;DHT22;46834;51.100;6.886;2022-09-12T17:26:12;23.90;39.10
60965;DHT22;46834;51.100;6.886;2022-09-12T17:28:39;23.90;39.20
60965;DHT22;46834;51.100;6.886;2022-09-12T17:31:07;23.80;39.10
60965;DHT22;46834;51.100;6.886;2022-09-12T17:33:35;23.80;39.10
60965;DHT22;46834;51.100;6.886;2022-09-12T17:36:03;23.80;39.10
60965;DHT22;46834;51.100;6.886;2022-09-12T17:38:35;23.70;39.10
60965;DHT22;46834;51.100;6.886;2022-09-12T17:41:23;23.60;39.10
60965;DHT22;46834;51.100;6.886;2022-09-12T17:43:53;23.60;39.00
60965;DHT22;46834;51.100;6.886;2022-09-12T17:46:25;23.50;39.10
60965;DHT22;46834;51.100;6.886;2022-09-12T17:48:57;23.50;39.20
60965;DHT22;46834;51.100;6.886;2022-09-12T17:51:27;23.40;39.20
60965;DHT22;46834;51.100;6.886;2022-09-12T17:54:03;23.40;39.30
60965;DHT22;46834;51.100;6.886;2022-09-12T17:56:35;23.30;39.30
60965;DHT22;46834;51.100;6.886;2022-09-12T17:59:02;23.20;39.30
60965;DHT22;46834;51.100;6.886;2022-09-12T18:01:29;23.20;39.40
60965;DHT22;46834;51.100;6.886;2022-09-12T18:04:14;23.10;39.40
60965;DHT22;46834;51.100;6.886;2022-09-12T18:06:41;23.00;39.40
60965;DHT22;46834;51.100;6.886;2022-09-12T18:09:12;23.00;39.50
60965;DHT22;46834;51.100;6.886;2022-09-12T18:11:39;23.00;39.60
60965;DHT22;46834;51.100;6.886;2022-09-12T18:14:05;22.90;39.60
60965;DHT22;46834;51.100;6.886;2022-09-12T18:16:30;22.80;39.60
60965;DHT22;46834;51.100;6.886;2022-09-12T18:18:59;22.80;39.70
60965;DHT22;46834;51.100;6.886;2022-09-12T18:21:28;22.80;39.90
60965;DHT22;46834;51.100;6.886;2022-09-12T18:23:55;22.70;39.80
60965;DHT22;46834;51.100;6.886;2022-09-12T18:26:24;22.60;39.80
60965;DHT22;46834;51.100;6.886;2022-09-12T18:28:51;22.60;40.00
60965;DHT22;46834;51.100;6.886;2022-09-12T18:31:19;22.50;39.90
60965;DHT22;46834;51.100;6.886;2022-09-12T18:33:47;22.50;40.00
60965;DHT22;46834;51.100;6.886;2022-09-12T18:36:14;22.40;40.10
60965;DHT22;46834;51.100;6.886;2022-09-12T18:38:41;22.40;40.10
60965;DHT22;46834;51.100;6.886;2022-09-12T18:41:10;22.40;40.20